Аэропорт: Курумоч. Самара

ICAO: UWWW

METAR:
2019/03/26 13:00
UWWW 261300Z 18005MPS 9999 FEW033 03/M02 Q1014 R15/250150 NOSIG RMK QFE749/0999
METAR:
2019/03/26 12:21
TAF UWWW 261101Z 2612/2712 19008MPS 9999 BKN020 TX04/2712Z TN00/2703Z 
     FM261400 17007G12MPS 3100 -RASN BR BKN011 
      TEMPO 2614/2623 21009G15MPS 0700 +SHSNRA VV006 
      TEMPO 2623/2712 20003G09MPS 1000 RA BKN003